Weather at Sultanpur Airport

Public forecast

Using degrees Celsius for public forecast. Weather courtesy of forecast.io.

Closest aviation weather report (METAR) to Sultanpur Airport

Closest report is Chaudhary Charan Singh International Airport, 69.2 nm (128.2 km) WNW.

2024/05/18 21:30 (retrieved 25 minutes ago)

VILK 182130Z VRB02KT 4000 HZ NSC 30/19 Q0999 NOSIG

Closest aviation forecast (TAF) to Sultanpur Airport

Closest forecast is Chaudhary Charan Singh International Airport, 69.2 nm (128.2 km) WNW.

2024/05/18 18:00 (retrieved 4 hours ago)

TAF VILK 181700Z 1818/1924 VRB02KT 5000 HZ NSC BECMG 1822/1824 4000 HZ SCT100 BECMG 1900/1902 VRB02KT 3000 HZ FEW020 SCT100 BECMG 1904/1906 27008KT 5000 HZ BECMG 1916/1918 VRB02KT 5000 HZ SCT100